sensor_id;sensor_type;location;lat;lon;timestamp;P1;durP1;ratioP1;P2;durP2;ratioP2
4222;SDS011;2125;51.436;14.138;2022-11-15T09:03:18;44.40;;;17.33;;
4222;SDS011;2125;51.436;14.138;2022-11-15T09:05:45;49.00;;;17.83;;
4222;SDS011;2125;51.436;14.138;2022-11-15T09:08:12;50.07;;;16.20;;
4222;SDS011;2125;51.436;14.138;2022-11-15T09:10:39;44.20;;;15.23;;
4222;SDS011;2125;51.436;14.138;2022-11-15T09:13:05;43.50;;;16.80;;
4222;SDS011;2125;51.436;14.138;2022-11-15T09:15:32;42.83;;;17.87;;
4222;SDS011;2125;51.436;14.138;2022-11-15T09:17:59;48.23;;;17.37;;
4222;SDS011;2125;51.436;14.138;2022-11-15T09:20:27;47.17;;;16.70;;
4222;SDS011;2125;51.436;14.138;2022-11-15T09:22:54;39.43;;;14.73;;
4222;SDS011;2125;51.436;14.138;2022-11-15T09:25:25;42.30;;;16.87;;
4222;SDS011;2125;51.436;14.138;2022-11-15T09:27:51;48.50;;;17.17;;
4222;SDS011;2125;51.436;14.138;2022-11-15T09:30:18;45.43;;;17.77;;
4222;SDS011;2125;51.436;14.138;2022-11-15T09:32:45;41.60;;;17.40;;
4222;SDS011;2125;51.436;14.138;2022-11-15T09:35:19;37.30;;;14.57;;
4222;SDS011;2125;51.436;14.138;2022-11-15T09:37:56;40.77;;;14.90;;
4222;SDS011;2125;51.436;14.138;2022-11-15T09:40:23;36.37;;;14.37;;
4222;SDS011;2125;51.436;14.138;2022-11-15T09:45:46;41.63;;;16.67;;
4222;SDS011;2125;51.436;14.138;2022-11-15T09:48:28;33.07;;;13.70;;
4222;SDS011;2125;51.436;14.138;2022-11-15T09:51:16;31.33;;;13.17;;
4222;SDS011;2125;51.436;14.138;2022-11-15T09:53:55;32.90;;;13.17;;
4222;SDS011;2125;51.436;14.138;2022-11-15T09:56:31;38.40;;;14.27;;
4222;SDS011;2125;51.436;14.138;2022-11-15T09:59:04;30.93;;;14.30;;
4222;SDS011;2125;51.436;14.138;2022-11-15T10:01:44;28.47;;;12.03;;
4222;SDS011;2125;51.436;14.138;2022-11-15T10:04:19;36.73;;;13.73;;
4222;SDS011;2125;51.436;14.138;2022-11-15T10:06:48;24.47;;;11.10;;
4222;SDS011;2125;51.436;14.138;2022-11-15T10:09:23;25.73;;;10.93;;
4222;SDS011;2125;51.436;14.138;2022-11-15T10:11:52;29.27;;;12.23;;
4222;SDS011;2125;51.436;14.138;2022-11-15T10:14:21;24.90;;;11.30;;
4222;SDS011;2125;51.436;14.138;2022-11-15T10:16:53;26.63;;;12.10;;
4222;SDS011;2125;51.436;14.138;2022-11-15T10:19:30;24.00;;;9.77;;
4222;SDS011;2125;51.436;14.138;2022-11-15T10:22:10;24.27;;;11.20;;
4222;SDS011;2125;51.436;14.138;2022-11-15T10:24:45;27.10;;;11.87;;
4222;SDS011;2125;51.436;14.138;2022-11-15T10:27:13;26.13;;;10.70;;
4222;SDS011;2125;51.436;14.138;2022-11-15T10:29:45;18.87;;;8.43;;
4222;SDS011;2125;51.436;14.138;2022-11-15T10:32:13;20.43;;;8.00;;
4222;SDS011;2125;51.436;14.138;2022-11-15T10:34:41;14.77;;;7.27;;
4222;SDS011;2125;51.436;14.138;2022-11-15T10:37:08;15.60;;;7.90;;
4222;SDS011;2125;51.436;14.138;2022-11-15T10:39:34;13.70;;;6.80;;
4222;SDS011;2125;51.436;14.138;2022-11-15T10:42:16;27.23;;;7.87;;
4222;SDS011;2125;51.436;14.138;2022-11-15T10:44:48;15.00;;;6.60;;
4222;SDS011;2125;51.436;14.138;2022-11-15T10:47:23;15.93;;;6.57;;
4222;SDS011;2125;51.436;14.138;2022-11-15T10:49:55;12.93;;;6.00;;
4222;SDS011;2125;51.436;14.138;2022-11-15T10:52:23;15.90;;;7.20;;
4222;SDS011;2125;51.436;14.138;2022-11-15T10:54:52;15.07;;;7.10;;
4222;SDS011;2125;51.436;14.138;2022-11-15T10:57:23;14.33;;;6.43;;
4222;SDS011;2125;51.436;14.138;2022-11-15T10:59:53;14.37;;;6.70;;
4222;SDS011;2125;51.436;14.138;2022-11-15T11:02:27;16.50;;;7.30;;
4222;SDS011;2125;51.436;14.138;2022-11-15T11:05:00;14.33;;;7.30;;
4222;SDS011;2125;51.436;14.138;2022-11-15T11:07:28;12.73;;;6.50;;
4222;SDS011;2125;51.436;14.138;2022-11-15T11:09:57;14.63;;;6.67;;
4222;SDS011;2125;51.436;14.138;2022-11-15T11:12:31;14.47;;;7.37;;
4222;SDS011;2125;51.436;14.138;2022-11-15T11:14:59;17.33;;;7.30;;
4222;SDS011;2125;51.436;14.138;2022-11-15T11:17:32;15.00;;;7.40;;
4222;SDS011;2125;51.436;14.138;2022-11-15T11:20:15;12.67;;;5.60;;
4222;SDS011;2125;51.436;14.138;2022-11-15T11:22:51;11.70;;;6.20;;
4222;SDS011;2125;51.436;14.138;2022-11-15T11:25:30;14.43;;;6.50;;
4222;SDS011;2125;51.436;14.138;2022-11-15T11:28:09;12.00;;;6.20;;
4222;SDS011;2125;51.436;14.138;2022-11-15T11:30:53;12.20;;;5.60;;
4222;SDS011;2125;51.436;14.138;2022-11-15T11:33:31;12.93;;;6.80;;
4222;SDS011;2125;51.436;14.138;2022-11-15T11:36:03;13.70;;;6.50;;
4222;SDS011;2125;51.436;14.138;2022-11-15T11:38:42;14.53;;;6.37;;
4222;SDS011;2125;51.436;14.138;2022-11-15T11:41:20;13.00;;;6.10;;
4222;SDS011;2125;51.436;14.138;2022-11-15T11:44:04;14.00;;;6.77;;
4222;SDS011;2125;51.436;14.138;2022-11-15T11:46:48;14.73;;;6.50;;
4222;SDS011;2125;51.436;14.138;2022-11-15T11:49:20;15.00;;;6.70;;
4222;SDS011;2125;51.436;14.138;2022-11-15T11:51:52;11.77;;;6.10;;
4222;SDS011;2125;51.436;14.138;2022-11-15T11:54:24;18.20;;;5.97;;
4222;SDS011;2125;51.436;14.138;2022-11-15T11:56:58;12.20;;;6.20;;
4222;SDS011;2125;51.436;14.138;2022-11-15T11:59:33;13.27;;;5.90;;
4222;SDS011;2125;51.436;14.138;2022-11-15T12:02:09;19.87;;;8.67;;
4222;SDS011;2125;51.436;14.138;2022-11-15T12:04:40;16.83;;;8.53;;
4222;SDS011;2125;51.436;14.138;2022-11-15T12:07:11;16.90;;;7.70;;
4222;SDS011;2125;51.436;14.138;2022-11-15T12:09:43;15.93;;;7.30;;
4222;SDS011;2125;51.436;14.138;2022-11-15T12:12:15;13.97;;;6.30;;
4222;SDS011;2125;51.436;14.138;2022-11-15T12:14:50;13.53;;;6.80;;
4222;SDS011;2125;51.436;14.138;2022-11-15T12:17:22;18.60;;;7.40;;
4222;SDS011;2125;51.436;14.138;2022-11-15T12:19:51;19.37;;;8.53;;
4222;SDS011;2125;51.436;14.138;2022-11-15T12:22:22;13.73;;;6.30;;
4222;SDS011;2125;51.436;14.138;2022-11-15T12:24:55;15.10;;;6.30;;
4222;SDS011;2125;51.436;14.138;2022-11-15T12:27:31;30.60;;;6.87;;
4222;SDS011;2125;51.436;14.138;2022-11-15T12:30:04;17.23;;;6.90;;
4222;SDS011;2125;51.436;14.138;2022-11-15T12:32:37;12.43;;;6.23;;
4222;SDS011;2125;51.436;14.138;2022-11-15T12:35:20;10.47;;;5.47;;
4222;SDS011;2125;51.436;14.138;2022-11-15T12:37:50;12.50;;;6.17;;
4222;SDS011;2125;51.436;14.138;2022-11-15T12:40:30;15.20;;;6.93;;
4222;SDS011;2125;51.436;14.138;2022-11-15T12:43:02;17.10;;;7.30;;
4222;SDS011;2125;51.436;14.138;2022-11-15T12:45:34;16.83;;;6.53;;
4222;SDS011;2125;51.436;14.138;2022-11-15T12:51:02;11.43;;;5.47;;
4222;SDS011;2125;51.436;14.138;2022-11-15T12:53:30;10.70;;;6.10;;
4222;SDS011;2125;51.436;14.138;2022-11-15T12:58:48;16.37;;;6.53;;
4222;SDS011;2125;51.436;14.138;2022-11-15T13:04:23;12.00;;;6.37;;
4222;SDS011;2125;51.436;14.138;2022-11-15T13:06:53;15.57;;;7.27;;
4222;SDS011;2125;51.436;14.138;2022-11-15T13:12:54;13.27;;;5.70;;
4222;SDS011;2125;51.436;14.138;2022-11-15T13:18:32;16.67;;;7.13;;
4222;SDS011;2125;51.436;14.138;2022-11-15T13:21:18;17.90;;;7.80;;
4222;SDS011;2125;51.436;14.138;2022-11-15T13:24:04;15.40;;;7.27;;
4222;SDS011;2125;51.436;14.138;2022-11-15T13:26:37;14.13;;;6.37;;
4222;SDS011;2125;51.436;14.138;2022-11-15T13:29:12;17.50;;;7.47;;
4222;SDS011;2125;51.436;14.138;2022-11-15T13:31:42;18.17;;;7.00;;
4222;SDS011;2125;51.436;14.138;2022-11-15T13:34:17;15.20;;;7.60;;
4222;SDS011;2125;51.436;14.138;2022-11-15T13:36:52;14.50;;;7.33;;
4222;SDS011;2125;51.436;14.138;2022-11-15T13:39:25;22.30;;;11.03;;
4222;SDS011;2125;51.436;14.138;2022-11-15T13:41:54;18.33;;;8.50;;
4222;SDS011;2125;51.436;14.138;2022-11-15T13:44:21;16.50;;;7.30;;
4222;SDS011;2125;51.436;14.138;2022-11-15T13:46:49;16.77;;;7.10;;
4222;SDS011;2125;51.436;14.138;2022-11-15T13:49:29;17.03;;;8.50;;
4222;SDS011;2125;51.436;14.138;2022-11-15T13:51:58;23.17;;;9.23;;
4222;SDS011;2125;51.436;14.138;2022-11-15T13:54:27;26.37;;;12.67;;
4222;SDS011;2125;51.436;14.138;2022-11-15T13:56:58;53.27;;;21.97;;
4222;SDS011;2125;51.436;14.138;2022-11-15T13:59:30;56.87;;;22.87;;
4222;SDS011;2125;51.436;14.138;2022-11-15T14:02:11;125.30;;;43.07;;
4222;SDS011;2125;51.436;14.138;2022-11-15T14:04:44;75.47;;;27.17;;
4222;SDS011;2125;51.436;14.138;2022-11-15T14:09:54;17.47;;;9.37;;
4222;SDS011;2125;51.436;14.138;2022-11-15T14:12:23;21.90;;;9.00;;
4222;SDS011;2125;51.436;14.138;2022-11-15T14:14:52;17.73;;;9.07;;
4222;SDS011;2125;51.436;14.138;2022-11-15T14:17:20;20.30;;;9.93;;
4222;SDS011;2125;51.436;14.138;2022-11-15T14:19:59;16.37;;;8.10;;
4222;SDS011;2125;51.436;14.138;2022-11-15T14:22:28;16.40;;;7.50;;
4222;SDS011;2125;51.436;14.138;2022-11-15T14:25:07;16.77;;;7.50;;
4222;SDS011;2125;51.436;14.138;2022-11-15T14:27:40;18.10;;;7.30;;
4222;SDS011;2125;51.436;14.138;2022-11-15T14:30:12;16.20;;;8.20;;
4222;SDS011;2125;51.436;14.138;2022-11-15T14:32:44;16.00;;;7.30;;
4222;SDS011;2125;51.436;14.138;2022-11-15T14:35:14;15.37;;;6.67;;
4222;SDS011;2125;51.436;14.138;2022-11-15T14:37:44;13.37;;;6.40;;
4222;SDS011;2125;51.436;14.138;2022-11-15T14:40:12;15.13;;;6.80;;
4222;SDS011;2125;51.436;14.138;2022-11-15T14:42:40;14.63;;;7.23;;
4222;SDS011;2125;51.436;14.138;2022-11-15T14:45:09;17.53;;;6.90;;
4222;SDS011;2125;51.436;14.138;2022-11-15T14:47:39;17.17;;;6.90;;
4222;SDS011;2125;51.436;14.138;2022-11-15T14:50:05;15.80;;;7.13;;
4222;SDS011;2125;51.436;14.138;2022-11-15T14:52:32;13.53;;;6.47;;
4222;SDS011;2125;51.436;14.138;2022-11-15T14:55:02;12.53;;;6.90;;
4222;SDS011;2125;51.436;14.138;2022-11-15T14:57:38;16.20;;;6.83;;
4222;SDS011;2125;51.436;14.138;2022-11-15T15:00:05;19.10;;;7.50;;
4222;SDS011;2125;51.436;14.138;2022-11-15T15:02:35;21.00;;;7.33;;
4222;SDS011;2125;51.436;14.138;2022-11-15T15:05:08;15.67;;;7.03;;
4222;SDS011;2125;51.436;14.138;2022-11-15T15:07:43;13.93;;;6.40;;
4222;SDS011;2125;51.436;14.138;2022-11-15T15:10:12;19.60;;;6.80;;
4222;SDS011;2125;51.436;14.138;2022-11-15T15:12:40;17.67;;;7.13;;
4222;SDS011;2125;51.436;14.138;2022-11-15T15:15:10;16.53;;;6.77;;
4222;SDS011;2125;51.436;14.138;2022-11-15T15:17:40;14.30;;;6.60;;
4222;SDS011;2125;51.436;14.138;2022-11-15T15:20:07;14.57;;;7.10;;
4222;SDS011;2125;51.436;14.138;2022-11-15T15:22:34;14.83;;;7.20;;
4222;SDS011;2125;51.436;14.138;2022-11-15T15:25:01;15.37;;;7.40;;
4222;SDS011;2125;51.436;14.138;2022-11-15T15:27:32;16.13;;;7.60;;
4222;SDS011;2125;51.436;14.138;2022-11-15T15:29:58;20.00;;;9.97;;
4222;SDS011;2125;51.436;14.138;2022-11-15T15:32:25;19.30;;;8.17;;
4222;SDS011;2125;51.436;14.138;2022-11-15T15:34:52;15.27;;;7.20;;
4222;SDS011;2125;51.436;14.138;2022-11-15T15:37:21;15.30;;;7.27;;
4222;SDS011;2125;51.436;14.138;2022-11-15T15:39:49;16.67;;;7.17;;
4222;SDS011;2125;51.436;14.138;2022-11-15T15:42:18;13.50;;;7.30;;
4222;SDS011;2125;51.436;14.138;2022-11-15T15:44:46;19.13;;;7.50;;
4222;SDS011;2125;51.436;14.138;2022-11-15T15:47:15;14.83;;;7.10;;
4222;SDS011;2125;51.436;14.138;2022-11-15T15:49:44;20.83;;;9.03;;
4222;SDS011;2125;51.436;14.138;2022-11-15T15:52:10;22.50;;;9.73;;
4222;SDS011;2125;51.436;14.138;2022-11-15T15:54:37;31.67;;;11.23;;
4222;SDS011;2125;51.436;14.138;2022-11-15T15:57:04;31.93;;;11.60;;
4222;SDS011;2125;51.436;14.138;2022-11-15T15:59:32;25.47;;;9.73;;
4222;SDS011;2125;51.436;14.138;2022-11-15T16:02:00;22.47;;;10.50;;
4222;SDS011;2125;51.436;14.138;2022-11-15T16:04:27;32.33;;;11.20;;
4222;SDS011;2125;51.436;14.138;2022-11-15T16:06:57;25.40;;;9.87;;
4222;SDS011;2125;51.436;14.138;2022-11-15T16:09:24;26.13;;;9.63;;
4222;SDS011;2125;51.436;14.138;2022-11-15T16:12:05;24.63;;;11.67;;
4222;SDS011;2125;51.436;14.138;2022-11-15T16:14:32;41.77;;;19.27;;
4222;SDS011;2125;51.436;14.138;2022-11-15T16:17:00;45.20;;;16.70;;
4222;SDS011;2125;51.436;14.138;2022-11-15T16:19:26;53.03;;;26.47;;
4222;SDS011;2125;51.436;14.138;2022-11-15T16:21:53;26.77;;;10.63;;
4222;SDS011;2125;51.436;14.138;2022-11-15T16:24:20;25.27;;;9.40;;
4222;SDS011;2125;51.436;14.138;2022-11-15T16:26:47;20.17;;;9.20;;
4222;SDS011;2125;51.436;14.138;2022-11-15T16:29:18;20.00;;;8.63;;
4222;SDS011;2125;51.436;14.138;2022-11-15T16:31:44;17.30;;;8.10;;
4222;SDS011;2125;51.436;14.138;2022-11-15T16:34:12;16.00;;;7.37;;
4222;SDS011;2125;51.436;14.138;2022-11-15T16:36:39;17.33;;;8.20;;
4222;SDS011;2125;51.436;14.138;2022-11-15T16:39:05;17.33;;;8.10;;
4222;SDS011;2125;51.436;14.138;2022-11-15T16:41:37;19.13;;;7.93;;
4222;SDS011;2125;51.436;14.138;2022-11-15T16:44:04;20.50;;;8.50;;
4222;SDS011;2125;51.436;14.138;2022-11-15T16:46:31;19.57;;;8.87;;
4222;SDS011;2125;51.436;14.138;2022-11-15T16:49:11;17.33;;;8.63;;
4222;SDS011;2125;51.436;14.138;2022-11-15T16:51:40;21.27;;;7.90;;
4222;SDS011;2125;51.436;14.138;2022-11-15T16:54:09;26.00;;;9.90;;
4222;SDS011;2125;51.436;14.138;2022-11-15T16:56:35;29.70;;;11.97;;
4222;SDS011;2125;51.436;14.138;2022-11-15T17:01:41;31.07;;;13.27;;
4222;SDS011;2125;51.436;14.138;2022-11-15T17:04:16;33.17;;;12.97;;
4222;SDS011;2125;51.436;14.138;2022-11-15T17:06:46;43.60;;;16.90;;
4222;SDS011;2125;51.436;14.138;2022-11-15T17:09:22;42.17;;;15.03;;
4222;SDS011;2125;51.436;14.138;2022-11-15T17:11:50;18.83;;;7.80;;
4222;SDS011;2125;51.436;14.138;2022-11-15T17:14:17;17.67;;;7.97;;
4222;SDS011;2125;51.436;14.138;2022-11-15T17:16:46;18.57;;;7.90;;
4222;SDS011;2125;51.436;14.138;2022-11-15T17:19:27;15.03;;;7.00;;
4222;SDS011;2125;51.436;14.138;2022-11-15T17:22:17;19.33;;;7.90;;
4222;SDS011;2125;51.436;14.138;2022-11-15T17:24:46;22.00;;;8.40;;
4222;SDS011;2125;51.436;14.138;2022-11-15T17:27:14;23.43;;;7.83;;
4222;SDS011;2125;51.436;14.138;2022-11-15T17:30:14;26.23;;;9.60;;
4222;SDS011;2125;51.436;14.138;2022-11-15T17:32:46;20.33;;;8.57;;
4222;SDS011;2125;51.436;14.138;2022-11-15T17:35:16;21.33;;;8.97;;
4222;SDS011;2125;51.436;14.138;2022-11-15T17:37:47;20.10;;;8.97;;
4222;SDS011;2125;51.436;14.138;2022-11-15T17:40:19;19.50;;;8.20;;
4222;SDS011;2125;51.436;14.138;2022-11-15T17:42:50;23.67;;;9.20;;
4222;SDS011;2125;51.436;14.138;2022-11-15T17:45:39;27.80;;;9.67;;
4222;SDS011;2125;51.436;14.138;2022-11-15T17:48:17;20.50;;;8.40;;
4222;SDS011;2125;51.436;14.138;2022-11-15T17:50:57;22.80;;;9.30;;
4222;SDS011;2125;51.436;14.138;2022-11-15T17:53:39;19.80;;;8.33;;
4222;SDS011;2125;51.436;14.138;2022-11-15T17:56:24;22.17;;;9.90;;
4222;SDS011;2125;51.436;14.138;2022-11-15T17:59:07;18.10;;;8.03;;
4222;SDS011;2125;51.436;14.138;2022-11-15T18:02:14;23.67;;;9.73;;
4222;SDS011;2125;51.436;14.138;2022-11-15T18:05:16;26.00;;;9.37;;
4222;SDS011;2125;51.436;14.138;2022-11-15T18:07:54;21.97;;;8.60;;
4222;SDS011;2125;51.436;14.138;2022-11-15T18:10:51;27.67;;;9.97;;
4222;SDS011;2125;51.436;14.138;2022-11-15T18:13:28;24.10;;;10.67;;
4222;SDS011;2125;51.436;14.138;2022-11-15T18:16:56;21.37;;;9.70;;
4222;SDS011;2125;51.436;14.138;2022-11-15T18:19:28;20.80;;;9.73;;
4222;SDS011;2125;51.436;14.138;2022-11-15T18:22:01;25.50;;;11.07;;
4222;SDS011;2125;51.436;14.138;2022-11-15T18:24:38;29.27;;;11.50;;
4222;SDS011;2125;51.436;14.138;2022-11-15T18:27:39;38.03;;;12.00;;
4222;SDS011;2125;51.436;14.138;2022-11-15T18:30:20;26.43;;;11.07;;
4222;SDS011;2125;51.436;14.138;2022-11-15T18:32:50;29.40;;;10.67;;
4222;SDS011;2125;51.436;14.138;2022-11-15T18:39:00;22.00;;;8.40;;
4222;SDS011;2125;51.436;14.138;2022-11-15T18:42:01;23.13;;;9.03;;
4222;SDS011;2125;51.436;14.138;2022-11-15T18:44:50;22.83;;;9.70;;
4222;SDS011;2125;51.436;14.138;2022-11-15T18:47:24;25.23;;;9.57;;
4222;SDS011;2125;51.436;14.138;2022-11-15T18:52:01;25.13;;;10.30;;
4222;SDS011;2125;51.436;14.138;2022-11-15T18:54:46;26.73;;;9.40;;
4222;SDS011;2125;51.436;14.138;2022-11-15T18:56:58;21.63;;;9.07;;
4222;SDS011;2125;51.436;14.138;2022-11-15T18:59:44;20.60;;;9.30;;
4222;SDS011;2125;51.436;14.138;2022-11-15T19:02:13;22.53;;;9.53;;
4222;SDS011;2125;51.436;14.138;2022-11-15T19:04:54;24.60;;;10.30;;
4222;SDS011;2125;51.436;14.138;2022-11-15T19:07:42;32.93;;;11.70;;
4222;SDS011;2125;51.436;14.138;2022-11-15T19:10:36;30.27;;;11.47;;
4222;SDS011;2125;51.436;14.138;2022-11-15T19:19:24;26.60;;;10.20;;
4222;SDS011;2125;51.436;14.138;2022-11-15T19:25:01;25.43;;;10.20;;
4222;SDS011;2125;51.436;14.138;2022-11-15T19:31:01;30.73;;;11.37;;
4222;SDS011;2125;51.436;14.138;2022-11-15T19:33:43;28.40;;;11.27;;
4222;SDS011;2125;51.436;14.138;2022-11-15T19:36:18;27.03;;;11.00;;
4222;SDS011;2125;51.436;14.138;2022-11-15T19:42:17;29.17;;;11.57;;
4222;SDS011;2125;51.436;14.138;2022-11-15T19:45:01;31.03;;;11.83;;
4222;SDS011;2125;51.436;14.138;2022-11-15T19:48:04;26.00;;;10.87;;
4222;SDS011;2125;51.436;14.138;2022-11-15T19:54:03;27.97;;;10.70;;
4222;SDS011;2125;51.436;14.138;2022-11-15T19:57:34;31.43;;;10.87;;
4222;SDS011;2125;51.436;14.138;2022-11-15T20:04:57;26.17;;;10.40;;
4222;SDS011;2125;51.436;14.138;2022-11-15T20:17:05;25.73;;;10.07;;
4222;SDS011;2125;51.436;14.138;2022-11-15T20:27:11;24.07;;;9.50;;
4222;SDS011;2125;51.436;14.138;2022-11-15T20:51:11;31.83;;;10.40;;
4222;SDS011;2125;51.436;14.138;2022-11-15T20:54:09;26.60;;;10.20;;
4222;SDS011;2125;51.436;14.138;2022-11-15T20:57:11;23.27;;;9.50;;
4222;SDS011;2125;51.436;14.138;2022-11-15T21:00:06;25.50;;;10.23;;
4222;SDS011;2125;51.436;14.138;2022-11-15T21:02:59;30.67;;;11.30;;
4222;SDS011;2125;51.436;14.138;2022-11-15T21:06:09;32.47;;;10.97;;
4222;SDS011;2125;51.436;14.138;2022-11-15T21:25:40;25.97;;;9.27;;
4222;SDS011;2125;51.436;14.138;2022-11-15T21:29:03;26.80;;;9.90;;
4222;SDS011;2125;51.436;14.138;2022-11-15T21:32:46;24.37;;;9.20;;
4222;SDS011;2125;51.436;14.138;2022-11-15T21:39:08;28.73;;;9.50;;
4222;SDS011;2125;51.436;14.138;2022-11-15T21:41:42;28.17;;;10.07;;
4222;SDS011;2125;51.436;14.138;2022-11-15T21:45:07;30.73;;;10.60;;
4222;SDS011;2125;51.436;14.138;2022-11-15T21:54:13;24.07;;;9.27;;
4222;SDS011;2125;51.436;14.138;2022-11-15T21:56:58;23.90;;;8.97;;
4222;SDS011;2125;51.436;14.138;2022-11-15T21:59:46;20.97;;;7.73;;
4222;SDS011;2125;51.436;14.138;2022-11-15T22:02:30;36.70;;;11.03;;
4222;SDS011;2125;51.436;14.138;2022-11-15T22:04:57;22.10;;;8.77;;
4222;SDS011;2125;51.436;14.138;2022-11-15T22:07:24;25.20;;;9.07;;
4222;SDS011;2125;51.436;14.138;2022-11-15T22:09:52;28.23;;;9.70;;
4222;SDS011;2125;51.436;14.138;2022-11-15T22:12:19;25.77;;;8.77;;
4222;SDS011;2125;51.436;14.138;2022-11-15T22:14:45;20.97;;;8.50;;
4222;SDS011;2125;51.436;14.138;2022-11-15T22:17:12;19.50;;;7.87;;
4222;SDS011;2125;51.436;14.138;2022-11-15T22:19:38;25.77;;;9.30;;
4222;SDS011;2125;51.436;14.138;2022-11-15T22:22:05;27.53;;;9.10;;
4222;SDS011;2125;51.436;14.138;2022-11-15T22:24:33;26.30;;;8.87;;
4222;SDS011;2125;51.436;14.138;2022-11-15T22:27:01;16.83;;;7.50;;
4222;SDS011;2125;51.436;14.138;2022-11-15T22:29:28;24.63;;;7.90;;
4222;SDS011;2125;51.436;14.138;2022-11-15T22:31:55;13.27;;;6.40;;
4222;SDS011;2125;51.436;14.138;2022-11-15T22:34:31;20.10;;;7.97;;
4222;SDS011;2125;51.436;14.138;2022-11-15T22:37:04;17.47;;;8.00;;
4222;SDS011;2125;51.436;14.138;2022-11-15T22:39:32;19.83;;;7.20;;
4222;SDS011;2125;51.436;14.138;2022-11-15T22:41:59;22.80;;;7.83;;
4222;SDS011;2125;51.436;14.138;2022-11-15T22:44:25;21.03;;;7.87;;
4222;SDS011;2125;51.436;14.138;2022-11-15T22:46:57;20.03;;;7.30;;
4222;SDS011;2125;51.436;14.138;2022-11-15T22:49:31;18.83;;;7.90;;
4222;SDS011;2125;51.436;14.138;2022-11-15T22:51:58;18.07;;;7.03;;
4222;SDS011;2125;51.436;14.138;2022-11-15T22:54:25;15.40;;;7.27;;
4222;SDS011;2125;51.436;14.138;2022-11-15T22:56:54;13.33;;;6.70;;
4222;SDS011;2125;51.436;14.138;2022-11-15T22:59:20;15.63;;;6.70;;
4222;SDS011;2125;51.436;14.138;2022-11-15T23:01:47;17.90;;;7.73;;
4222;SDS011;2125;51.436;14.138;2022-11-15T23:04:14;21.30;;;7.63;;
4222;SDS011;2125;51.436;14.138;2022-11-15T23:06:41;19.73;;;8.00;;
4222;SDS011;2125;51.436;14.138;2022-11-15T23:09:08;18.57;;;7.00;;
4222;SDS011;2125;51.436;14.138;2022-11-15T23:11:36;23.57;;;7.90;;
4222;SDS011;2125;51.436;14.138;2022-11-15T23:14:22;17.30;;;6.57;;
4222;SDS011;2125;51.436;14.138;2022-11-15T23:16:49;14.43;;;7.00;;
4222;SDS011;2125;51.436;14.138;2022-11-15T23:19:16;16.20;;;6.00;;
4222;SDS011;2125;51.436;14.138;2022-11-15T23:21:44;15.63;;;6.40;;
4222;SDS011;2125;51.436;14.138;2022-11-15T23:24:29;15.27;;;7.10;;
4222;SDS011;2125;51.436;14.138;2022-11-15T23:26:56;18.60;;;7.23;;
4222;SDS011;2125;51.436;14.138;2022-11-15T23:29:26;26.47;;;8.33;;
4222;SDS011;2125;51.436;14.138;2022-11-15T23:31:54;19.07;;;7.57;;
4222;SDS011;2125;51.436;14.138;2022-11-15T23:34:39;21.50;;;8.77;;
4222;SDS011;2125;51.436;14.138;2022-11-15T23:37:08;12.77;;;5.73;;
4222;SDS011;2125;51.436;14.138;2022-11-15T23:39:35;15.30;;;6.53;;
4222;SDS011;2125;51.436;14.138;2022-11-15T23:42:02;12.50;;;5.47;;
4222;SDS011;2125;51.436;14.138;2022-11-15T23:44:30;18.77;;;5.90;;
4222;SDS011;2125;51.436;14.138;2022-11-15T23:46:57;12.97;;;5.77;;
4222;SDS011;2125;51.436;14.138;2022-11-15T23:49:24;14.50;;;6.17;;
4222;SDS011;2125;51.436;14.138;2022-11-15T23:51:50;12.53;;;6.33;;
4222;SDS011;2125;51.436;14.138;2022-11-15T23:54:31;17.77;;;7.17;;
4222;SDS011;2125;51.436;14.138;2022-11-15T23:56:57;16.00;;;6.37;;
4222;SDS011;2125;51.436;14.138;2022-11-15T23:59:30;13.83;;;5.93;;
